createdAt,value
2024-04-30T00:02:53.096Z,62.55
2024-04-30T00:06:19.861Z,63.29
2024-04-30T00:09:47.204Z,64.65
2024-04-30T00:13:14.150Z,63.30
2024-04-30T00:16:44.565Z,61.80
2024-04-30T00:20:12.920Z,60.36
2024-04-30T00:23:39.557Z,57.16
2024-04-30T00:27:06.574Z,57.66
2024-04-30T00:30:33.150Z,58.92
2024-04-30T00:33:59.616Z,58.67
2024-04-30T00:37:26.251Z,59.79
2024-04-30T00:40:52.774Z,67.06
2024-04-30T00:44:19.238Z,66.43
2024-04-30T00:47:45.869Z,65.66
2024-04-30T00:51:14.337Z,63.68
2024-04-30T00:54:41.397Z,60.34
2024-04-30T00:58:08.376Z,56.68
2024-04-30T01:01:36.679Z,58.09
2024-04-30T01:05:02.791Z,59.15
2024-04-30T01:08:29.309Z,62.24
2024-04-30T01:11:56.593Z,66.47
2024-04-30T01:15:22.926Z,65.01
2024-04-30T01:18:49.484Z,62.89
2024-04-30T01:22:16.013Z,62.00
2024-04-30T01:25:43.068Z,60.57
2024-04-30T01:29:09.680Z,57.60
2024-04-30T02:03:56.449Z,68.16
2024-04-30T02:07:23.306Z,71.66
2024-04-30T02:10:49.808Z,70.96
2024-04-30T02:14:16.377Z,68.43
2024-04-30T02:17:42.856Z,66.36
2024-04-30T02:21:09.282Z,65.17
2024-04-30T02:24:35.997Z,64.13
2024-04-30T02:28:02.433Z,62.90
2024-04-30T02:31:46.263Z,62.62
2024-04-30T02:35:12.720Z,62.13
2024-04-30T02:38:39.668Z,61.39
2024-04-30T02:42:07.081Z,60.47
2024-04-30T02:45:34.160Z,59.69
2024-04-30T02:49:00.744Z,57.60
2024-04-30T02:52:27.346Z,59.44
2024-04-30T02:55:53.831Z,61.64
2024-04-30T02:59:40.292Z,66.45
2024-04-30T03:03:07.339Z,67.09
2024-04-30T03:06:34.083Z,64.88
2024-04-30T03:10:00.791Z,63.37
2024-04-30T03:13:27.924Z,62.36
2024-04-30T03:16:54.653Z,61.57
2024-04-30T03:20:21.071Z,60.45
2024-04-30T03:23:47.616Z,59.94
2024-04-30T03:27:14.229Z,59.56
2024-04-30T03:30:40.683Z,58.11
2024-04-30T03:34:07.398Z,59.71
2024-04-30T03:37:34.477Z,61.89
2024-04-30T03:41:01.121Z,67.82
2024-04-30T03:44:27.667Z,67.63
2024-04-30T03:47:54.255Z,64.96
2024-04-30T03:51:22.141Z,62.97
2024-04-30T03:54:48.647Z,61.82
2024-04-30T03:58:18.260Z,60.79
2024-04-30T04:01:46.089Z,58.66
2024-04-30T04:05:12.433Z,57.75
2024-04-30T04:08:39.104Z,58.94
2024-04-30T04:12:24.352Z,59.87
2024-04-30T04:15:50.834Z,60.02
2024-04-30T04:19:17.209Z,61.22
2024-04-30T04:22:43.648Z,60.62
2024-04-30T04:26:10.692Z,60.27
2024-04-30T04:29:37.934Z,59.71
2024-04-30T04:33:04.583Z,59.31
2024-04-30T04:36:30.967Z,58.66
2024-04-30T04:39:57.754Z,57.58
2024-04-30T04:43:24.265Z,57.03
2024-04-30T04:46:50.698Z,56.10
2024-04-30T04:50:17.137Z,56.72
2024-04-30T04:53:44.895Z,56.06
2024-04-30T04:57:10.188Z,55.38
2024-04-30T05:00:36.756Z,54.68
2024-04-30T05:04:05.248Z,54.08
2024-04-30T05:07:32.190Z,53.15
2024-04-30T05:10:48.648Z,52.88
2024-04-30T05:14:15.725Z,53.04
2024-04-30T05:17:42.515Z,52.76
2024-04-30T05:21:09.175Z,52.62
2024-04-30T05:24:35.607Z,52.05
2024-04-30T05:28:06.211Z,51.26
2024-04-30T05:31:37.117Z,50.87
2024-04-30T05:35:05.113Z,50.06
2024-04-30T05:38:31.543Z,49.75
2024-04-30T05:41:58.181Z,50.17
2024-04-30T05:45:24.745Z,49.38
2024-04-30T05:48:51.121Z,49.53
2024-04-30T05:52:17.934Z,51.32
2024-04-30T05:55:45.163Z,50.55
2024-04-30T05:59:11.632Z,51.52
2024-04-30T06:02:38.102Z,51.85
2024-04-30T06:06:04.776Z,51.08
2024-04-30T06:09:31.560Z,52.36
2024-04-30T06:12:58.043Z,52.74
2024-04-30T06:16:24.518Z,52.40
2024-04-30T06:19:51.289Z,52.82
2024-04-30T06:23:18.316Z,52.45
2024-04-30T06:26:45.741Z,52.12
2024-04-30T06:30:12.916Z,52.74
2024-04-30T06:33:39.454Z,53.21
2024-04-30T06:37:07.015Z,53.03
2024-04-30T06:40:34.703Z,52.73
2024-04-30T06:43:43.781Z,52.43
2024-04-30T06:47:10.500Z,51.95
2024-04-30T06:50:29.926Z,51.53
2024-04-30T06:53:56.422Z,51.04
2024-04-30T06:57:22.830Z,50.72
2024-04-30T07:00:49.447Z,50.49
2024-04-30T07:04:10.307Z,50.06
2024-04-30T07:07:20.957Z,49.56
2024-04-30T07:10:47.609Z,49.13
2024-04-30T07:14:14.490Z,48.89
2024-04-30T07:17:43.014Z,48.25
2024-04-30T07:20:57.894Z,48.20
2024-04-30T07:24:24.451Z,47.43
2024-04-30T07:27:51.299Z,47.04
2024-04-30T07:31:19.218Z,46.66
2024-04-30T07:34:45.961Z,46.28
2024-04-30T07:38:01.829Z,45.77
2024-04-30T07:41:28.388Z,45.52
2024-04-30T07:44:54.989Z,44.76
2024-04-30T07:48:21.562Z,44.36
2024-04-30T07:51:47.947Z,44.17
2024-04-30T07:54:57.524Z,43.63
2024-04-30T07:58:08.699Z,43.10
2024-04-30T08:01:18.190Z,42.85
2024-04-30T08:04:45.352Z,42.42
2024-04-30T08:08:13.988Z,41.87
2024-04-30T08:11:31.540Z,41.55
2024-04-30T08:14:38.031Z,41.00
2024-04-30T08:17:44.504Z,40.50
2024-04-30T08:20:50.746Z,39.48
2024-04-30T08:24:17.174Z,39.44
2024-04-30T08:27:43.889Z,39.65
2024-04-30T08:30:50.072Z,39.53
2024-04-30T08:34:17.016Z,39.28
2024-04-30T08:37:51.567Z,38.91
2024-04-30T08:41:22.306Z,38.53
2024-04-30T08:44:33.806Z,38.11
2024-04-30T08:47:56.227Z,38.88
2024-04-30T08:51:23.230Z,38.80
2024-04-30T08:54:50.247Z,38.39
2024-04-30T08:58:16.887Z,38.48
2024-04-30T09:01:45.330Z,38.27
2024-04-30T09:04:52.475Z,38.16
2024-04-30T09:08:19.433Z,38.12
2024-04-30T09:11:46.331Z,37.99
2024-04-30T09:14:57.628Z,37.83
2024-04-30T09:18:16.758Z,37.38
2024-04-30T09:21:45.829Z,37.05
2024-04-30T09:25:14.693Z,37.15
2024-04-30T09:28:43.474Z,36.59
2024-04-30T09:32:10.330Z,36.27
2024-04-30T09:35:27.053Z,36.02
2024-04-30T09:38:56.025Z,35.98
2024-04-30T09:42:26.610Z,36.16
2024-04-30T09:45:52.368Z,35.62
2024-04-30T09:49:20.304Z,34.26
2024-04-30T09:52:36.013Z,33.88
2024-04-30T09:56:04.109Z,33.65
2024-04-30T09:59:19.049Z,33.45
2024-04-30T10:02:40.549Z,33.42
2024-04-30T10:06:14.354Z,33.63
2024-04-30T10:09:31.071Z,32.80
2024-04-30T10:13:07.507Z,32.49
2024-04-30T10:16:18.452Z,31.82
2024-04-30T10:19:24.932Z,31.85
2024-04-30T10:22:37.537Z,32.07
2024-04-30T10:26:06.273Z,32.01
2024-04-30T10:29:24.843Z,31.67
2024-04-30T10:32:51.544Z,31.16
2024-04-30T10:36:28.485Z,30.72
2024-04-30T10:40:17.242Z,30.31
2024-04-30T10:43:43.911Z,29.82
2024-04-30T10:47:00.814Z,29.61
2024-04-30T10:50:26.986Z,29.90
2024-04-30T10:53:57.488Z,29.94
2024-04-30T10:57:34.472Z,29.82
2024-04-30T11:00:45.983Z,29.78
2024-04-30T11:04:07.854Z,29.92
2024-04-30T11:08:03.269Z,29.91
2024-04-30T11:11:44.189Z,29.41
2024-04-30T11:15:11.202Z,29.04
2024-04-30T11:18:39.092Z,29.02
2024-04-30T11:21:48.051Z,28.39
2024-04-30T11:26:22.594Z,28.91
2024-04-30T11:29:23.919Z,28.34
2024-04-30T11:32:59.996Z,28.29
2024-04-30T11:36:26.586Z,28.36
2024-04-30T11:39:53.512Z,28.11
2024-04-30T11:43:00.079Z,27.71
2024-04-30T11:46:08.746Z,27.72
2024-04-30T11:49:18.212Z,27.84
2024-04-30T11:52:44.942Z,28.10
2024-04-30T11:56:13.749Z,28.16
2024-04-30T11:59:41.853Z,27.71
2024-04-30T12:03:01.504Z,27.56
2024-04-30T12:06:28.240Z,27.71
2024-04-30T12:09:53.558Z,27.84
2024-04-30T12:13:01.850Z,27.94
2024-04-30T12:16:27.185Z,27.89
2024-04-30T12:19:40.811Z,27.91
2024-04-30T12:23:10.515Z,28.09
2024-04-30T12:26:38.188Z,27.91
2024-04-30T12:29:49.471Z,27.53
2024-04-30T12:33:18.420Z,27.24
2024-04-30T12:36:37.492Z,27.28
2024-04-30T12:40:06.720Z,27.19
2024-04-30T12:43:36.909Z,26.81
2024-04-30T12:47:03.418Z,26.64
2024-04-30T12:50:20.909Z,26.60
2024-04-30T12:53:48.122Z,26.69
2024-04-30T12:57:07.923Z,26.63
2024-04-30T13:00:24.046Z,26.62
2024-04-30T13:03:30.394Z,26.68
2024-04-30T13:06:49.952Z,26.97
2024-04-30T13:10:17.035Z,26.87
2024-04-30T13:13:43.714Z,26.86
2024-04-30T13:16:59.415Z,26.93
2024-04-30T13:20:09.375Z,26.94
2024-04-30T13:23:59.203Z,26.92
2024-04-30T13:27:17.549Z,27.06
2024-04-30T13:30:33.621Z,27.04
2024-04-30T13:34:00.094Z,26.81
2024-04-30T13:37:27.058Z,26.61
2024-04-30T13:40:43.966Z,26.89
2024-04-30T13:44:01.149Z,27.30
2024-04-30T13:47:28.826Z,26.80
2024-04-30T13:50:35.284Z,26.63
2024-04-30T13:53:50.467Z,26.58
2024-04-30T13:57:17.018Z,26.15
2024-04-30T14:00:43.460Z,25.88
2024-04-30T14:04:10.492Z,26.18
2024-04-30T14:07:20.781Z,26.09
2024-04-30T14:10:47.312Z,25.85
2024-04-30T14:14:14.604Z,25.69
2024-04-30T14:17:39.888Z,25.91
2024-04-30T14:20:55.464Z,25.36
2024-04-30T14:24:16.617Z,24.77
2024-04-30T14:27:42.406Z,24.51
2024-04-30T14:30:51.516Z,24.12
2024-04-30T14:34:18.502Z,24.19
2024-04-30T14:37:48.522Z,24.25
2024-04-30T14:41:16.343Z,24.36
2024-04-30T14:44:24.698Z,23.74
2024-04-30T14:47:45.043Z,24.04
2024-04-30T14:51:12.506Z,23.75
2024-04-30T14:54:22.546Z,23.79
2024-04-30T14:57:27.665Z,22.85
2024-04-30T15:00:33.975Z,22.81
2024-04-30T15:03:40.383Z,22.89
2024-04-30T15:07:07.407Z,22.82
2024-04-30T15:10:35.481Z,22.90
2024-04-30T15:14:00.618Z,22.69
2024-04-30T15:17:37.037Z,22.57
2024-04-30T15:21:29.047Z,22.27
2024-04-30T15:24:56.126Z,22.15
2024-04-30T15:28:23.126Z,22.19
2024-04-30T15:31:30.012Z,21.97
2024-04-30T15:34:48.663Z,22.08
2024-04-30T15:38:36.353Z,21.60
2024-04-30T15:42:03.325Z,21.46
2024-04-30T15:45:11.412Z,21.44
2024-04-30T15:49:00.854Z,21.89
2024-04-30T15:52:20.107Z,21.63
2024-04-30T15:56:04.878Z,21.51
2024-04-30T15:59:36.157Z,21.47
2024-04-30T16:03:02.915Z,21.06
2024-04-30T16:06:19.192Z,20.22
2024-04-30T16:09:46.081Z,20.13
2024-04-30T16:13:23.306Z,19.93
2024-04-30T16:17:12.318Z,19.63
2024-04-30T16:20:44.127Z,19.82
2024-04-30T16:24:14.156Z,20.26
2024-04-30T16:28:07.199Z,20.58
2024-04-30T16:31:35.204Z,20.86
2024-04-30T16:34:46.486Z,21.01
2024-04-30T16:38:14.688Z,20.85
2024-04-30T16:41:41.196Z,21.06
2024-04-30T16:45:09.591Z,21.09
2024-04-30T16:48:39.483Z,20.85
2024-04-30T16:52:07.182Z,20.84
2024-04-30T16:55:35.270Z,20.69
2024-04-30T16:59:06.550Z,20.60
2024-04-30T17:02:35.881Z,20.66
2024-04-30T17:05:42.367Z,20.98
2024-04-30T17:08:51.026Z,21.37
2024-04-30T17:12:17.736Z,21.68
2024-04-30T17:15:34.640Z,21.84
2024-04-30T17:19:07.015Z,22.10
2024-04-30T17:22:36.974Z,22.40
2024-04-30T17:26:06.656Z,22.61
2024-04-30T17:29:34.252Z,23.08
2024-04-30T17:33:21.148Z,23.66
2024-04-30T17:36:50.336Z,24.11
2024-04-30T17:40:20.136Z,24.40
2024-04-30T17:43:58.952Z,24.74
2024-04-30T17:47:27.316Z,24.95
2024-04-30T17:50:54.032Z,25.17
2024-04-30T17:54:26.739Z,25.48
2024-04-30T17:58:17.955Z,25.70
2024-04-30T18:01:50.612Z,26.27
2024-04-30T18:05:22.066Z,26.60
2024-04-30T18:08:58.422Z,27.28
2024-04-30T18:12:27.364Z,27.75
2024-04-30T18:15:55.182Z,28.21
2024-04-30T18:19:17.250Z,28.78
2024-04-30T18:22:44.747Z,28.91
2024-04-30T18:26:13.752Z,29.53
2024-04-30T18:29:41.020Z,30.19
2024-04-30T18:33:10.245Z,30.93
2024-04-30T18:36:40.494Z,31.21
2024-04-30T18:40:10.172Z,31.73
2024-04-30T18:43:37.161Z,32.04
2024-04-30T18:47:03.838Z,33.02
2024-04-30T18:50:30.943Z,33.74
2024-04-30T18:53:57.317Z,34.36
2024-04-30T18:57:24.419Z,33.21
2024-04-30T19:00:51.006Z,34.31
2024-04-30T19:04:17.612Z,34.95
2024-04-30T19:07:36.846Z,35.39
2024-04-30T19:11:04.828Z,35.80
2024-04-30T19:14:31.508Z,36.42
2024-04-30T19:17:58.007Z,36.75
2024-04-30T19:21:24.434Z,36.99
2024-04-30T19:24:51.746Z,37.46
2024-04-30T19:28:20.460Z,37.88
2024-04-30T19:31:46.990Z,38.18
2024-04-30T19:35:13.534Z,38.75
2024-04-30T19:38:41.434Z,39.19
2024-04-30T19:42:08.606Z,39.56
2024-04-30T19:45:27.641Z,40.37
2024-04-30T19:48:55.160Z,40.37
2024-04-30T19:52:22.849Z,40.90
2024-04-30T19:55:50.805Z,41.27
2024-04-30T19:59:19.705Z,41.94
2024-04-30T20:02:46.210Z,42.02
2024-04-30T20:06:13.226Z,42.42
2024-04-30T20:09:42.103Z,42.93
2024-04-30T20:13:08.487Z,43.03
2024-04-30T20:16:39.950Z,43.52
2024-04-30T20:20:07.175Z,43.68
2024-04-30T20:23:33.988Z,43.83
2024-04-30T20:27:00.496Z,44.15
2024-04-30T20:30:27.399Z,44.80
2024-04-30T20:33:53.990Z,45.02
2024-04-30T20:37:20.521Z,45.25
2024-04-30T20:40:46.980Z,45.27
2024-04-30T20:44:13.509Z,45.58
2024-04-30T20:47:40.116Z,45.77
2024-04-30T20:51:07.251Z,45.84
2024-04-30T20:54:34.032Z,45.96
2024-04-30T20:58:00.503Z,46.06
2024-04-30T21:01:27.992Z,46.01
2024-04-30T21:04:54.542Z,46.04
2024-04-30T21:08:24.294Z,46.09
2024-04-30T21:11:50.819Z,46.01
2024-04-30T21:15:17.347Z,45.94
2024-04-30T21:18:46.866Z,45.91
2024-04-30T21:22:13.404Z,45.85
2024-04-30T21:25:40.034Z,45.88
2024-04-30T21:29:07.369Z,45.79
2024-04-30T21:32:34.119Z,45.88
2024-04-30T21:36:01.005Z,45.94
2024-04-30T21:39:27.558Z,45.80
2024-04-30T21:42:54.100Z,45.95
2024-04-30T21:46:20.611Z,46.02
2024-04-30T21:49:49.311Z,46.00
2024-04-30T21:53:15.741Z,46.06
2024-04-30T21:56:42.301Z,46.06
2024-04-30T22:00:13.987Z,46.15
2024-04-30T22:03:40.598Z,46.31
2024-04-30T22:07:07.762Z,46.53
2024-04-30T22:10:34.213Z,46.55
2024-04-30T22:14:00.685Z,46.73
2024-04-30T22:17:27.380Z,46.81
2024-04-30T22:20:53.778Z,47.12
2024-04-30T22:24:20.427Z,47.10
2024-04-30T22:27:47.177Z,47.32
2024-04-30T22:31:13.699Z,47.54
2024-04-30T22:34:40.262Z,47.75
2024-04-30T22:38:07.003Z,47.90
2024-04-30T22:41:33.532Z,48.24
2024-04-30T22:45:00.116Z,48.26
2024-04-30T22:48:26.820Z,48.47
2024-04-30T22:51:53.679Z,48.65
2024-04-30T22:55:20.296Z,48.86
2024-04-30T22:58:47.187Z,49.60
2024-04-30T23:02:13.786Z,49.50
2024-04-30T23:05:40.281Z,49.69
2024-04-30T23:09:06.810Z,49.99
2024-04-30T23:12:33.487Z,50.23
2024-04-30T23:16:00.156Z,50.75
2024-04-30T23:19:26.685Z,50.89
2024-04-30T23:22:53.278Z,50.90
2024-04-30T23:26:20.662Z,50.85
2024-04-30T23:29:48.449Z,51.28
2024-04-30T23:33:14.935Z,51.44
2024-04-30T23:36:41.438Z,51.78
2024-04-30T23:40:11.734Z,52.06
2024-04-30T23:43:40.765Z,52.32
2024-04-30T23:47:07.595Z,52.42
2024-04-30T23:50:34.020Z,52.40
2024-04-30T23:54:00.691Z,52.90
2024-04-30T23:57:27.923Z,53.17
